Time;durP1;ratioP1;P1;durP2;ratioP2;P2;SDS_P1;SDS_P2;PMS_P1;PMS_P2;Temp;Humidity;BMP_temperature;BMP_pressure;BME280_temperature;BME280_humidity;BME280_pressure;Samples;Min_cycle;Max_cycle;Signal;HPM_P1;HPM_P2
2024/01/09 00:01:44;;;;;;;21.10;11.30;;;;;;;-1.30;85.11;95930.55;110608;1274;22156;-81
2024/01/09 00:04:12;;;;;;;20.40;11.50;;;;;;;-1.36;85.06;95934.67;110533;1274;22126;-81
2024/01/09 00:06:40;;;;;;;23.10;12.20;;;;;;;-1.39;85.32;95940.27;110600;1274;22935;-81
2024/01/09 00:09:08;;;;;;;23.60;12.80;;;;;;;-1.38;85.52;95938.24;110556;1274;22129;-79
2024/01/09 00:11:37;;;;;;;21.80;12.40;;;;;;;-1.31;85.93;95942.63;110609;1274;22147;-79
2024/01/09 00:14:05;;;;;;;23.90;13.20;;;;;;;-1.19;86.18;95947.30;110614;1274;22137;-78
2024/01/09 00:16:33;;;;;;;20.60;12.60;;;;;;;-1.10;86.14;95949.34;110637;1274;22920;-79
2024/01/09 00:19:01;;;;;;;20.90;12.60;;;;;;;-1.03;85.71;95952.13;110551;1274;22131;-79
2024/01/09 00:21:30;;;;;;;18.50;12.00;;;;;;;-1.03;85.01;95955.23;110576;1274;22138;-79
2024/01/09 00:23:58;;;;;;;19.30;11.70;;;;;;;-1.06;84.65;95960.16;110648;1274;22140;-79
2024/01/09 00:26:26;;;;;;;20.10;11.90;;;;;;;-1.09;84.69;95962.45;110621;1274;22232;-79
2024/01/09 00:28:55;;;;;;;20.80;12.00;;;;;;;-1.16;84.58;95966.39;110618;1274;22134;-79
2024/01/09 00:31:23;;;;;;;18.70;11.80;;;;;;;-1.18;84.82;95971.16;110629;1274;22106;-79
2024/01/09 00:33:51;;;;;;;22.10;12.40;;;;;;;-1.23;84.66;95974.46;110622;1274;22141;-79
2024/01/09 00:36:20;;;;;;;19.10;11.20;;;;;;;-1.25;85.07;95976.78;110536;1274;22451;-79
2024/01/09 00:38:48;;;;;;;20.90;11.90;;;;;;;-1.31;85.12;95982.12;110641;1274;22140;-79
2024/01/09 00:41:16;;;;;;;22.70;12.60;;;;;;;-1.38;85.17;95983.27;110608;1274;23094;-79
2024/01/09 00:43:45;;;;;;;21.20;12.30;;;;;;;-1.41;85.26;95997.14;110545;1274;22897;-79
2024/01/09 00:46:13;;;;;;;19.60;11.40;;;;;;;-1.43;85.39;95993.62;110594;1274;22626;-79
2024/01/09 00:48:41;;;;;;;20.30;9.90;;;;;;;-1.48;85.27;95996.39;110611;1274;22862;-78
2024/01/09 00:51:09;;;;;;;18.80;11.30;;;;;;;-1.57;85.47;96000.42;110619;1274;22136;-79
2024/01/09 00:53:38;;;;;;;19.10;11.60;;;;;;;-1.63;85.72;96007.08;110602;1274;22174;-79
2024/01/09 00:56:06;;;;;;;23.60;12.50;;;;;;;-1.64;85.87;96008.95;110610;1274;22297;-79
2024/01/09 00:58:34;;;;;;;20.90;11.70;;;;;;;-1.66;85.91;96011.48;110597;1274;22335;-79
2024/01/09 01:01:03;;;;;;;22.00;13.50;;;;;;;-1.71;86.02;96014.40;110623;1274;22181;-78
2024/01/09 01:03:31;;;;;;;21.10;12.20;;;;;;;-1.79;86.18;96013.11;110560;1274;22134;-79
2024/01/09 01:05:59;;;;;;;21.70;11.30;;;;;;;-1.82;86.33;96018.85;110570;1274;23116;-79
2024/01/09 01:08:28;;;;;;;20.10;11.10;;;;;;;-1.87;86.54;96018.84;110633;1274;22133;-79
2024/01/09 01:10:56;;;;;;;20.50;12.50;;;;;;;-1.88;86.56;96020.88;110552;1274;22208;-78
2024/01/09 01:13:24;;;;;;;21.60;11.20;;;;;;;-1.91;86.66;96027.31;110605;1274;22198;-78
2024/01/09 01:15:52;;;;;;;18.80;11.70;;;;;;;-1.92;86.48;96027.30;110528;1274;22305;-79
2024/01/09 01:18:21;;;;;;;21.10;12.10;;;;;;;-1.94;86.56;96029.27;110594;1274;22153;-79
2024/01/09 01:20:49;;;;;;;21.00;11.30;;;;;;;-1.96;86.63;96036.09;110561;1274;22120;-79
2024/01/09 01:23:17;;;;;;;17.20;10.70;;;;;;;-1.99;86.70;96037.21;110628;1274;22145;-79
2024/01/09 01:25:46;;;;;;;21.70;11.70;;;;;;;-2.02;87.00;96040.91;110621;1274;23218;-78
2024/01/09 01:28:14;;;;;;;21.50;13.40;;;;;;;-2.04;86.96;96043.08;110626;1274;22292;-79
2024/01/09 01:30:42;;;;;;;25.00;13.60;;;;;;;-2.04;87.00;96042.02;110609;1274;22183;-78
2024/01/09 01:33:10;;;;;;;23.50;13.20;;;;;;;-2.05;86.96;96048.35;110623;1263;22123;-79
2024/01/09 01:35:39;;;;;;;23.10;12.10;;;;;;;-2.04;86.89;96048.41;110605;1274;22122;-79
2024/01/09 01:38:07;;;;;;;20.70;12.30;;;;;;;-2.04;86.99;96055.46;110652;1274;22376;-79
2024/01/09 01:40:35;;;;;;;20.40;12.40;;;;;;;-2.04;87.06;96058.23;110628;1274;22281;-79
2024/01/09 01:43:05;;;;;;;19.00;11.20;;;;;;;-2.04;86.88;96066.14;110627;1274;22068;-79
2024/01/09 01:45:33;;;;;;;23.70;12.30;;;;;;;-2.00;87.15;96066.83;110616;1274;22773;-78
2024/01/09 01:48:03;;;;;;;18.20;10.90;;;;;;;-1.93;87.24;96065.01;110614;1274;22621;-78
2024/01/09 01:50:33;;;;;;;18.90;11.30;;;;;;;-1.89;87.00;96066.00;110537;1274;22159;-78
2024/01/09 01:53:04;;;;;;;19.40;10.80;;;;;;;-1.89;86.62;96064.11;110875;1263;22927;-78
2024/01/09 01:55:34;;;;;;;20.00;10.70;;;;;;;-1.86;86.71;96074.05;110542;1274;22247;-78
2024/01/09 01:58:04;;;;;;;24.80;13.30;;;;;;;-1.86;86.41;96072.33;110557;1274;22119;-78
2024/01/09 02:00:33;;;;;;;22.60;11.90;;;;;;;-1.81;86.74;96076.82;110600;1274;22122;-78
2024/01/09 02:03:02;;;;;;;22.20;11.90;;;;;;;-1.75;86.76;96071.01;110606;1274;22843;-79
2024/01/09 02:05:31;;;;;;;21.00;12.10;;;;;;;-1.69;86.66;96073.28;110583;1274;22107;-78
2024/01/09 02:08:01;;;;;;;22.40;12.40;;;;;;;-1.68;86.14;96077.97;110609;1274;22180;-78
2024/01/09 02:10:29;;;;;;;19.70;11.80;;;;;;;-1.69;85.98;96079.66;110576;1274;22134;-78
2024/01/09 02:12:57;;;;;;;20.60;12.30;;;;;;;-1.68;85.96;96081.08;110613;1274;22268;-78
2024/01/09 02:15:25;;;;;;;24.00;13.10;;;;;;;-1.69;86.02;96079.50;110597;1274;22147;-79
2024/01/09 02:17:53;;;;;;;21.10;11.90;;;;;;;-1.72;85.58;96081.98;110614;1274;22846;-78
2024/01/09 02:20:22;;;;;;;20.70;12.60;;;;;;;-1.76;85.54;96085.14;110615;1274;22222;-79
2024/01/09 02:22:51;;;;;;;18.70;11.70;;;;;;;-1.78;85.49;96085.04;110600;1274;22266;-78
2024/01/09 02:25:19;;;;;;;21.40;11.10;;;;;;;-1.79;85.62;96079.85;110588;1274;22194;-79
2024/01/09 02:27:47;;;;;;;24.10;12.40;;;;;;;-1.78;85.54;96079.17;110601;1274;22132;-79
2024/01/09 02:30:16;;;;;;;19.90;12.40;;;;;;;-1.79;85.43;96088.27;110609;1274;22200;-78
2024/01/09 02:32:46;;;;;;;22.50;11.50;;;;;;;-1.83;85.18;96087.45;110571;1274;22187;-79
2024/01/09 02:35:15;;;;;;;21.40;12.20;;;;;;;-1.88;85.06;96091.23;110625;1274;22308;-78
2024/01/09 02:37:43;;;;;;;24.00;12.80;;;;;;;-1.88;85.26;96085.71;110638;1274;22111;-78
2024/01/09 02:40:11;;;;;;;20.00;11.90;;;;;;;-1.87;85.35;96088.48;110612;1274;22171;-79
2024/01/09 02:42:39;;;;;;;22.10;12.30;;;;;;;-1.92;84.98;96090.91;110615;1274;22204;-78
2024/01/09 02:45:10;;;;;;;22.10;12.30;;;;;;;-2.02;84.73;96092.44;110584;1274;22146;-78
2024/01/09 02:47:38;;;;;;;22.40;12.80;;;;;;;-2.11;84.83;96094.00;110593;1274;22144;-78
2024/01/09 02:50:07;;;;;;;21.40;12.50;;;;;;;-2.18;84.99;96097.70;110598;1264;22177;-79
2024/01/09 02:52:35;;;;;;;20.90;11.30;;;;;;;-2.24;85.13;96097.27;110606;1274;22127;-78
2024/01/09 02:55:03;;;;;;;19.80;11.90;;;;;;;-2.28;85.31;96100.06;110594;1274;22210;-78
2024/01/09 02:57:31;;;;;;;20.00;10.10;;;;;;;-2.31;85.44;96101.81;110582;1274;22099;-78
2024/01/09 03:00:00;;;;;;;21.30;10.50;;;;;;;-2.35;85.63;96107.36;110569;1274;22189;-78
2024/01/09 03:02:28;;;;;;;21.20;11.90;;;;;;;-2.39;85.86;96110.65;110611;1274;22300;-78
2024/01/09 03:04:57;;;;;;;19.10;9.40;;;;;;;-2.44;85.83;96111.68;110582;1274;22229;-78
2024/01/09 03:07:25;;;;;;;20.90;11.80;;;;;;;-2.48;86.06;96116.52;110605;1274;23028;-78
2024/01/09 03:09:53;;;;;;;23.50;12.30;;;;;;;-2.49;86.15;96120.93;110597;1274;22889;-79
2024/01/09 03:12:22;;;;;;;21.20;11.70;;;;;;;-2.50;86.31;96123.16;110648;1263;22968;-78
2024/01/09 03:14:50;;;;;;;21.90;11.70;;;;;;;-2.52;86.55;96127.52;110593;1274;22216;-78
2024/01/09 03:17:18;;;;;;;23.70;12.70;;;;;;;-2.54;86.60;96132.11;110595;1274;22134;-78
2024/01/09 03:19:46;;;;;;;25.50;12.90;;;;;;;-2.57;86.71;96135.94;110568;1274;22211;-78
2024/01/09 03:22:15;;;;;;;26.00;13.10;;;;;;;-2.60;86.73;96138.44;110644;1263;22125;-78
2024/01/09 03:24:43;;;;;;;20.50;12.60;;;;;;;-2.63;86.61;96139.02;110599;1274;22198;-78
2024/01/09 03:27:11;;;;;;;21.50;12.70;;;;;;;-2.65;86.75;96139.95;110586;1274;22279;-78
2024/01/09 03:29:39;;;;;;;21.80;13.00;;;;;;;-2.66;86.75;96138.34;110620;1274;22211;-78
2024/01/09 03:32:08;;;;;;;23.20;13.30;;;;;;;-2.69;86.74;96148.23;110593;1274;22755;-78
2024/01/09 03:34:36;;;;;;;26.70;13.70;;;;;;;-2.72;86.72;96150.65;110636;1274;22294;-78
2024/01/09 03:37:06;;;;;;;22.10;12.60;;;;;;;-2.76;86.81;96158.27;110633;1274;22359;-78
2024/01/09 03:39:34;;;;;;;24.20;13.70;;;;;;;-2.81;87.17;96163.05;110606;1274;22120;-79
2024/01/09 03:42:03;;;;;;;21.90;11.20;;;;;;;-2.86;87.00;96170.05;110627;1274;22100;-78
2024/01/09 03:44:31;;;;;;;25.00;13.00;;;;;;;-2.93;87.41;96176.84;110564;1274;22320;-78
2024/01/09 03:46:59;;;;;;;30.20;15.70;;;;;;;-2.95;87.48;96182.61;110594;1274;23034;-78
2024/01/09 03:49:27;;;;;;;28.70;14.90;;;;;;;-2.96;87.28;96183.89;110595;1274;22118;-78
2024/01/09 03:51:57;;;;;;;23.80;13.60;;;;;;;-2.96;87.40;96187.35;110597;1274;22348;-78
2024/01/09 03:54:25;;;;;;;22.30;12.90;;;;;;;-2.95;87.35;96190.16;110582;1274;22122;-78
2024/01/09 03:56:53;;;;;;;24.90;13.40;;;;;;;-2.94;87.44;96195.56;110634;1274;22778;-78
2024/01/09 03:59:21;;;;;;;24.90;14.50;;;;;;;-2.91;87.59;96197.23;110602;1274;22184;-78
2024/01/09 04:01:50;;;;;;;24.60;13.00;;;;;;;-2.89;87.22;96202.14;110577;1274;22806;-78
2024/01/09 04:04:18;;;;;;;25.00;12.30;;;;;;;-2.87;87.04;96206.19;110593;1274;22817;-79
2024/01/09 04:06:48;;;;;;;32.30;16.30;;;;;;;-2.90;86.79;96208.11;110608;1274;23024;-78
2024/01/09 04:09:16;;;;;;;44.30;18.80;;;;;;;-2.92;86.67;96210.46;110605;1274;22141;-79
2024/01/09 04:11:45;;;;;;;35.70;18.20;;;;;;;-2.93;86.59;96215.73;110625;1274;22885;-78
2024/01/09 04:14:14;;;;;;;34.00;17.10;;;;;;;-2.93;86.55;96221.07;110588;1274;22160;-78
2024/01/09 04:16:48;;;;;;;23.90;12.70;;;;;;;-2.94;86.52;96225.33;110581;1274;22166;-81
2024/01/09 04:19:16;;;;;;;22.40;12.60;;;;;;;-2.90;86.44;96226.36;110561;1274;22128;-81
2024/01/09 04:21:45;;;;;;;30.70;15.90;;;;;;;-2.90;85.95;96232.05;110577;1274;22148;-81
2024/01/09 04:24:13;;;;;;;29.50;16.10;;;;;;;-2.91;86.09;96229.05;110547;1274;22235;-81
2024/01/09 04:26:41;;;;;;;37.00;19.00;;;;;;;-2.94;86.06;96232.91;110593;1274;22130;-81
2024/01/09 04:29:09;;;;;;;41.00;19.70;;;;;;;-2.95;86.23;96238.70;110616;1274;22727;-81
2024/01/09 04:31:38;;;;;;;205.10;110.20;;;;;;;-2.95;86.24;96239.60;110524;1260;22277;-81
2024/01/09 04:34:06;;;;;;;57.70;30.10;;;;;;;-2.92;86.31;96243.14;110581;1274;22147;-81
2024/01/09 04:36:34;;;;;;;31.10;19.10;;;;;;;-2.88;86.23;96244.51;110546;1274;22266;-81
2024/01/09 04:39:02;;;;;;;26.40;15.10;;;;;;;-2.84;86.13;96248.16;110594;1274;23124;-81
2024/01/09 04:41:31;;;;;;;38.10;20.80;;;;;;;-2.89;85.91;96248.63;110613;1274;22112;-81
2024/01/09 04:43:59;;;;;;;26.80;15.70;;;;;;;-2.93;85.95;96248.77;110588;1274;22835;-81
2024/01/09 04:46:27;;;;;;;27.80;15.80;;;;;;;-2.92;85.98;96251.56;110607;1274;22977;-81
2024/01/09 04:48:55;;;;;;;31.00;16.40;;;;;;;-2.93;86.06;96254.82;110612;1274;22115;-81
2024/01/09 04:51:24;;;;;;;33.60;18.00;;;;;;;-2.98;86.02;96258.70;110594;1274;22306;-80
2024/01/09 04:53:52;;;;;;;29.20;16.70;;;;;;;-3.08;85.99;96260.86;110593;1274;22262;-81
2024/01/09 04:56:20;;;;;;;28.70;15.70;;;;;;;-3.13;86.08;96263.56;110619;1274;22296;-81
2024/01/09 04:58:53;;;;;;;35.00;18.90;;;;;;;-3.18;86.31;96266.27;110606;1274;22898;-81
2024/01/09 05:01:22;;;;;;;36.20;19.00;;;;;;;-3.24;86.35;96272.35;110545;1274;22131;-81
2024/01/09 05:03:50;;;;;;;38.30;22.20;;;;;;;-3.30;86.40;96277.23;110585;1274;22894;-81
2024/01/09 05:06:19;;;;;;;43.20;25.80;;;;;;;-3.36;86.48;96288.66;110586;1274;22105;-81
2024/01/09 05:08:48;;;;;;;32.50;19.00;;;;;;;-3.44;86.07;96291.91;110599;1274;22593;-80
2024/01/09 05:11:16;;;;;;;30.70;15.00;;;;;;;-3.48;86.32;96290.88;110637;1274;22590;-81
2024/01/09 05:13:47;;;;;;;29.20;14.70;;;;;;;-3.52;86.50;96296.23;110542;1274;22147;-81
2024/01/09 05:16:15;;;;;;;26.10;14.20;;;;;;;-3.55;86.54;96294.85;110542;1274;22176;-81
2024/01/09 05:18:44;;;;;;;30.80;16.00;;;;;;;-3.58;86.90;96302.11;110570;1274;22097;-81
2024/01/09 05:21:13;;;;;;;66.10;43.60;;;;;;;-3.61;87.01;96305.95;110619;1274;22579;-81
2024/01/09 05:23:41;;;;;;;33.10;19.30;;;;;;;-3.62;87.14;96312.92;110595;1274;22830;-81
2024/01/09 05:26:09;;;;;;;27.10;15.20;;;;;;;-3.66;87.06;96315.65;110591;1274;22125;-81
2024/01/09 05:28:38;;;;;;;30.10;17.80;;;;;;;-3.68;87.17;96321.23;110603;1274;22160;-80
2024/01/09 05:31:06;;;;;;;27.30;16.60;;;;;;;-3.71;87.40;96325.39;110603;1274;22171;-81
2024/01/09 05:33:35;;;;;;;31.10;15.00;;;;;;;-3.75;87.47;96335.89;110608;1274;22138;-81
2024/01/09 05:36:05;;;;;;;30.30;15.80;;;;;;;-3.76;88.05;96336.20;110617;1274;22120;-80
2024/01/09 05:38:34;;;;;;;35.30;17.70;;;;;;;-3.76;87.54;96344.59;110551;1256;22120;-81
2024/01/09 05:41:02;;;;;;;38.30;18.90;;;;;;;-3.73;87.51;96347.31;110604;1274;22279;-81
2024/01/09 05:43:30;;;;;;;50.30;26.40;;;;;;;-3.71;87.74;96353.63;110079;1274;591969;-81
2024/01/09 05:45:58;;;;;;;44.30;22.40;;;;;;;-3.69;87.44;96354.23;110614;1274;22191;-80
2024/01/09 05:48:26;;;;;;;38.30;20.50;;;;;;;-3.69;87.70;96361.27;110622;1274;22246;-81
2024/01/09 05:50:55;;;;;;;43.00;23.60;;;;;;;-3.72;87.81;96362.98;110591;1274;22183;-81
2024/01/09 05:53:23;;;;;;;30.50;17.10;;;;;;;-3.67;87.89;96370.14;110578;1265;22260;-79
2024/01/09 05:55:51;;;;;;;42.10;20.50;;;;;;;-3.58;88.03;96375.71;110588;1274;23009;-81
2024/01/09 05:58:19;;;;;;;40.50;19.90;;;;;;;-3.52;87.66;96381.67;110629;1274;22204;-81
2024/01/09 06:00:47;;;;;;;41.70;21.50;;;;;;;-3.45;87.66;96383.90;110586;1275;22305;-79
2024/01/09 06:03:16;;;;;;;38.10;18.80;;;;;;;-3.35;87.74;96388.84;110625;1274;22264;-80
2024/01/09 06:05:44;;;;;;;64.00;29.70;;;;;;;-3.34;86.91;96389.23;110606;1274;22827;-82
2024/01/09 06:08:13;;;;;;;96.90;47.60;;;;;;;-3.38;86.47;96391.98;110615;1274;22133;-80
2024/01/09 06:10:41;;;;;;;90.70;46.40;;;;;;;-3.37;86.42;96395.98;110625;1274;22257;-83
2024/01/09 06:13:10;;;;;;;58.90;31.10;;;;;;;-3.30;86.48;96403.05;110604;1274;22177;-81
2024/01/09 06:15:38;;;;;;;54.40;31.40;;;;;;;-3.29;85.98;96404.96;110564;1274;22336;-79
2024/01/09 06:18:07;;;;;;;43.10;22.30;;;;;;;-3.31;85.68;96408.27;110606;1274;22115;-81
2024/01/09 06:20:35;;;;;;;32.70;17.20;;;;;;;-3.25;85.93;96413.08;110578;1274;23017;-82
2024/01/09 06:23:04;;;;;;;33.20;18.60;;;;;;;-3.17;85.71;96416.36;110628;1274;22182;-83
2024/01/09 06:25:32;;;;;;;38.60;21.80;;;;;;;-3.14;85.15;96422.86;110576;1274;22236;-83
2024/01/09 06:28:00;;;;;;;33.00;18.60;;;;;;;-3.15;84.75;96429.20;110599;1274;22143;-82
2024/01/09 06:30:28;;;;;;;59.20;28.40;;;;;;;-3.26;84.48;96432.42;110638;1274;22287;-81
2024/01/09 06:32:57;;;;;;;101.10;42.40;;;;;;;-3.34;84.54;96447.53;110567;1274;22975;-81
2024/01/09 06:35:25;;;;;;;97.70;42.20;;;;;;;-3.40;85.16;96452.96;110590;1274;22856;-83
2024/01/09 06:37:54;;;;;;;46.70;24.70;;;;;;;-3.39;85.52;96455.73;110595;1274;22812;-80
2024/01/09 06:40:24;;;;;;;86.30;37.70;;;;;;;-3.46;85.39;96459.70;110622;1274;22149;-80
2024/01/09 06:42:52;;;;;;;68.60;33.40;;;;;;;-3.45;85.17;96463.53;110599;1274;22126;-79
2024/01/09 06:45:21;;;;;;;60.70;28.00;;;;;;;-3.44;85.01;96467.70;110619;1274;22338;-81
2024/01/09 06:47:49;;;;;;;58.40;30.60;;;;;;;-3.48;84.52;96473.55;110575;1274;22973;-80
2024/01/09 06:50:18;;;;;;;51.50;26.60;;;;;;;-3.47;84.87;96473.59;110625;1274;22100;-81
2024/01/09 06:53:01;;;;;;;58.50;31.10;;;;;;;-3.46;84.45;96480.66;110587;1274;22068;-80
2024/01/09 06:55:29;;;;;;;57.30;27.10;;;;;;;-3.49;84.17;96483.14;110591;1274;22435;-80
2024/01/09 06:57:57;;;;;;;92.50;37.60;;;;;;;-3.51;83.71;96485.42;110587;1274;22352;-80
2024/01/09 07:00:25;;;;;;;55.80;26.20;;;;;;;-3.54;83.65;96488.02;110582;1274;22113;-80
2024/01/09 07:02:53;;;;;;;46.50;23.40;;;;;;;-3.58;83.21;96489.02;110620;1274;23026;-79
2024/01/09 07:05:21;;;;;;;30.50;15.90;;;;;;;-3.60;83.33;96492.55;110615;1274;22802;-80
2024/01/09 07:07:50;;;;;;;31.70;15.80;;;;;;;-3.62;83.24;96495.02;110573;1274;22118;-80
2024/01/09 07:10:18;;;;;;;21.00;12.20;;;;;;;-3.61;83.20;96498.33;110597;1274;22183;-80
2024/01/09 07:12:47;;;;;;;18.90;11.40;;;;;;;-3.63;83.06;96504.95;110575;1269;22151;-79
2024/01/09 07:15:15;;;;;;;29.50;18.90;;;;;;;-3.64;83.05;96508.17;110575;1274;22129;-79
2024/01/09 07:17:45;;;;;;;32.30;19.40;;;;;;;-3.60;83.43;96509.08;110512;1274;22768;-78
2024/01/09 07:20:15;;;;;;;24.60;14.50;;;;;;;-3.53;83.61;96515.09;110549;1274;22311;-78
2024/01/09 07:22:44;;;;;;;24.10;13.30;;;;;;;-3.47;83.54;96519.84;110528;1274;23001;-78
2024/01/09 07:25:16;;;;;;;20.40;12.30;;;;;;;-3.45;83.17;96526.65;110518;1275;22138;-80
2024/01/09 07:27:44;;;;;;;18.40;10.50;;;;;;;-3.41;82.90;96531.67;110572;1274;22301;-79
2024/01/09 07:30:14;;;;;;;15.70;10.00;;;;;;;-3.38;82.87;96533.90;110637;1274;22202;-78
2024/01/09 07:32:42;;;;;;;82.70;38.40;;;;;;;-3.32;82.88;96536.77;110597;1274;22793;-82
2024/01/09 07:35:11;;;;;;;97.60;43.00;;;;;;;-3.25;82.73;96538.66;110608;1274;22198;-80
2024/01/09 07:37:39;;;;;;;53.20;26.50;;;;;;;-3.18;82.56;96544.16;110591;1274;22727;-82
2024/01/09 07:40:08;;;;;;;40.50;20.10;;;;;;;-3.17;81.90;96547.84;110533;1274;22130;-81
2024/01/09 07:42:36;;;;;;;36.80;19.80;;;;;;;-3.14;81.95;96551.08;110608;1274;22252;-80
2024/01/09 07:45:16;;;;;;;22.10;11.60;;;;;;;-3.06;82.24;96557.85;110513;1274;22258;-81
2024/01/09 07:47:44;;;;;;;21.40;10.90;;;;;;;-2.99;81.65;96565.73;110573;1273;22862;-79
2024/01/09 07:50:12;;;;;;;24.80;13.00;;;;;;;-2.92;81.46;96563.35;110577;1274;22112;-79
2024/01/09 07:52:40;;;;;;;73.10;40.10;;;;;;;-2.81;81.31;96567.83;110587;1275;22996;-80
2024/01/09 07:55:08;;;;;;;54.30;29.60;;;;;;;-2.68;80.91;96565.89;110587;1274;22101;-81
2024/01/09 07:57:37;;;;;;;157.30;82.50;;;;;;;-2.58;80.39;96566.18;110597;1274;22132;-81
2024/01/09 08:00:06;;;;;;;38.80;20.50;;;;;;;-2.41;80.30;96564.55;110562;1274;22285;-83
2024/01/09 08:02:40;;;;;;;142.10;71.60;;;;;;;-2.26;79.64;96570.92;110595;1263;22238;-81
2024/01/09 08:05:08;;;;;;;48.60;27.40;;;;;;;-2.11;79.49;96567.12;110583;1274;22197;-82
2024/01/09 08:07:37;;;;;;;33.10;15.00;;;;;;;-1.95;79.68;96567.17;110527;1274;22144;-82
2024/01/09 08:10:05;;;;;;;32.10;18.30;;;;;;;-1.82;78.54;96566.02;110594;1274;22199;-83
2024/01/09 08:12:33;;;;;;;26.00;15.10;;;;;;;-1.75;78.04;96565.66;110582;1275;22168;-82
2024/01/09 08:15:02;;;;;;;32.40;16.00;;;;;;;-1.65;78.15;96567.81;110583;1274;22174;-82
2024/01/09 08:17:31;;;;;;;36.30;18.40;;;;;;;-1.59;77.89;96566.71;110531;1274;22195;-82
2024/01/09 08:19:59;;;;;;;44.00;19.30;;;;;;;-1.57;77.13;96572.82;110570;1275;22224;-81
2024/01/09 08:22:28;;;;;;;45.20;19.40;;;;;;;-1.56;77.18;96574.77;110603;1274;22182;-82
2024/01/09 08:24:56;;;;;;;36.30;17.20;;;;;;;-1.57;76.96;96577.64;110596;1274;22180;-83
2024/01/09 08:27:25;;;;;;;20.50;11.60;;;;;;;-1.57;77.07;96581.77;110584;1274;22309;-78
2024/01/09 08:29:53;;;;;;;17.70;8.30;;;;;;;-1.69;76.56;96587.30;110581;1275;22347;-77
2024/01/09 08:32:22;;;;;;;16.40;9.50;;;;;;;-1.76;75.95;96592.31;110598;1274;22205;-80
2024/01/09 08:34:51;;;;;;;20.10;11.30;;;;;;;-1.82;76.37;96595.70;110581;1274;22271;-78
2024/01/09 08:37:19;;;;;;;15.60;7.50;;;;;;;-1.83;76.24;96596.69;110623;1274;22184;-79
2024/01/09 08:39:47;;;;;;;15.30;7.70;;;;;;;-1.83;76.07;96595.14;110580;1274;22503;-77
2024/01/09 08:42:16;;;;;;;14.10;8.50;;;;;;;-1.79;76.30;96593.59;110513;1274;22177;-78
2024/01/09 08:44:44;;;;;;;20.40;11.10;;;;;;;-1.74;76.67;96600.85;110572;1274;22111;-78
2024/01/09 08:47:12;;;;;;;30.20;14.10;;;;;;;-1.70;76.72;96608.27;110581;1274;22920;-78
2024/01/09 08:49:41;;;;;;;35.40;18.90;;;;;;;-1.65;77.15;96606.11;110583;1274;22947;-80
2024/01/09 08:52:10;;;;;;;26.50;15.90;;;;;;;-1.58;77.59;96603.66;110554;1275;22756;-78
2024/01/09 08:54:38;;;;;;;22.60;13.20;;;;;;;-1.50;77.64;96605.23;110553;1274;22269;-79
2024/01/09 08:57:06;;;;;;;24.50;14.30;;;;;;;-1.43;77.37;96605.16;110601;1274;22116;-78
2024/01/09 08:59:34;;;;;;;24.70;13.50;;;;;;;-1.40;77.14;96604.81;110604;1275;22250;-78
2024/01/09 09:02:03;;;;;;;19.90;11.90;;;;;;;-1.35;76.77;96607.23;110586;1274;22901;-79
2024/01/09 09:04:31;;;;;;;15.60;9.60;;;;;;;-1.30;76.64;96606.78;110594;1274;22175;-81
2024/01/09 09:06:59;;;;;;;15.10;8.40;;;;;;;-1.26;76.10;96608.32;110586;1274;22151;-78
2024/01/09 09:09:27;;;;;;;18.90;11.00;;;;;;;-1.23;75.58;96606.92;110616;1274;22112;-78
2024/01/09 09:11:56;;;;;;;12.00;7.00;;;;;;;-1.20;75.22;96608.44;110598;1274;22992;-79
2024/01/09 09:14:24;;;;;;;14.60;8.60;;;;;;;-1.13;75.21;96610.45;110576;1263;22300;-78
2024/01/09 09:16:53;;;;;;;10.90;6.40;;;;;;;-1.05;75.09;96613.02;110565;1274;22147;-82
2024/01/09 09:19:23;;;;;;;9.40;5.30;;;;;;;-1.00;74.63;96608.91;110558;1272;22161;-81
2024/01/09 09:21:52;;;;;;;9.20;5.50;;;;;;;-0.91;74.05;96612.59;110588;1274;22674;-79
2024/01/09 09:24:20;;;;;;;10.70;6.90;;;;;;;-0.78;74.76;96615.66;110557;1270;22126;-80
2024/01/09 09:26:48;;;;;;;9.20;5.00;;;;;;;-0.68;73.85;96616.80;110586;1275;22122;-80
2024/01/09 09:29:16;;;;;;;9.10;5.30;;;;;;;-0.56;73.72;96616.95;110539;1275;22124;-80
2024/01/09 09:31:59;;;;;;;7.90;5.10;;;;;;;-0.38;73.64;96609.36;110616;1274;23093;-80
2024/01/09 09:34:27;;;;;;;8.20;4.70;;;;;;;-0.25;72.03;96610.10;110517;1275;22100;-81
2024/01/09 09:36:55;;;;;;;7.50;4.00;;;;;;;-0.16;72.12;96608.49;110567;1274;23061;-78
2024/01/09 09:39:24;;;;;;;7.20;4.00;;;;;;;-0.06;71.94;96609.77;110603;1275;22115;-79
2024/01/09 09:41:59;;;;;;;7.30;4.00;;;;;;;0.06;72.03;96612.45;110600;1274;22158;-81
2024/01/09 09:44:28;;;;;;;6.00;3.70;;;;;;;0.17;71.53;96612.02;110598;1274;23090;-80
2024/01/09 09:46:57;;;;;;;6.40;3.00;;;;;;;0.28;70.17;96608.27;110604;1274;22192;-79
2024/01/09 09:49:25;;;;;;;4.60;2.80;;;;;;;0.26;67.29;96606.30;110571;1274;22144;-80
2024/01/09 09:51:54;;;;;;;5.10;2.30;;;;;;;0.21;65.60;96609.56;110614;1274;22154;-80
2024/01/09 09:54:24;;;;;;;4.40;2.30;;;;;;;0.22;65.50;96608.38;110558;1273;22128;-79
2024/01/09 09:56:52;;;;;;;4.70;2.40;;;;;;;0.30;65.03;96601.60;110530;1274;22183;-79
2024/01/09 09:59:21;;;;;;;4.60;2.20;;;;;;;0.57;65.02;96595.33;110604;1274;22135;-79
2024/01/09 10:01:50;;;;;;;3.70;2.10;;;;;;;0.83;60.48;96595.71;110591;1266;22140;-79
2024/01/09 10:04:28;;;;;;;3.30;2.10;;;;;;;1.00;58.81;96596.84;110546;1274;22171;-79
2024/01/09 10:06:58;;;;;;;3.90;2.20;;;;;;;1.26;58.27;96589.04;110603;1274;22166;-79
2024/01/09 10:09:32;;;;;;;3.50;2.50;;;;;;;1.60;58.53;96588.23;110500;1274;22188;-79
2024/01/09 10:12:00;;;;;;;5.30;2.40;;;;;;;2.02;58.34;96581.90;110586;1270;22147;-79
2024/01/09 10:14:28;;;;;;;3.70;2.20;;;;;;;2.30;55.80;96580.14;110609;1263;22114;-79
2024/01/09 10:16:59;;;;;;;5.20;2.10;;;;;;;2.47;53.32;96577.67;110588;1274;22166;-79
2024/01/09 10:19:27;;;;;;;3.80;1.90;;;;;;;2.67;52.30;96578.22;110525;1274;22183;-80
2024/01/09 10:21:56;;;;;;;3.50;2.40;;;;;;;2.77;51.99;96579.55;110627;1275;22092;-79
2024/01/09 10:24:24;;;;;;;3.30;2.00;;;;;;;3.06;52.55;96583.95;110548;1274;22131;-80
2024/01/09 10:26:54;;;;;;;3.20;1.90;;;;;;;3.10;50.43;96577.80;110635;1274;22200;-79
2024/01/09 10:29:23;;;;;;;2.70;1.70;;;;;;;3.19;50.49;96580.66;110606;1274;22134;-79
2024/01/09 10:31:51;;;;;;;2.20;1.70;;;;;;;3.41;49.59;96578.08;110585;1274;22930;-80
2024/01/09 10:34:19;;;;;;;3.90;2.10;;;;;;;3.49;48.30;96580.20;110591;1274;22148;-80
2024/01/09 10:36:50;;;;;;;3.50;2.10;;;;;;;3.72;48.87;96578.31;110604;1274;22136;-80
2024/01/09 10:39:18;;;;;;;3.40;2.10;;;;;;;3.79;47.60;96584.55;110611;1274;22186;-80
2024/01/09 10:41:46;;;;;;;3.20;2.20;;;;;;;3.97;47.87;96585.33;110598;1274;22121;-80
2024/01/09 10:44:15;;;;;;;3.10;1.90;;;;;;;4.14;46.55;96580.30;110622;1275;22248;-80
2024/01/09 10:46:44;;;;;;;3.40;2.00;;;;;;;4.25;46.38;96581.06;110592;1275;22135;-80
2024/01/09 10:49:14;;;;;;;2.30;1.90;;;;;;;4.41;46.27;96573.77;110620;1274;22179;-80
2024/01/09 10:51:44;;;;;;;4.60;2.40;;;;;;;4.70;47.41;96569.63;110550;1274;22157;-80
2024/01/09 10:54:15;;;;;;;5.90;3.10;;;;;;;5.02;47.54;96566.59;110607;1274;22166;-80
2024/01/09 10:56:44;;;;;;;3.50;2.50;;;;;;;4.86;45.79;96562.61;110608;1274;22134;-81
2024/01/09 10:59:14;;;;;;;2.40;1.90;;;;;;;4.99;47.25;96556.94;110590;1274;22160;-80
2024/01/09 11:01:43;;;;;;;5.10;3.60;;;;;;;5.31;47.59;96552.80;110554;1274;22840;-80
2024/01/09 11:04:11;;;;;;;6.90;4.30;;;;;;;5.50;47.58;96548.23;110530;1274;23193;-80
2024/01/09 11:06:42;;;;;;;10.00;5.70;;;;;;;5.50;46.45;96553.80;110577;1274;22773;-79
2024/01/09 11:09:18;;;;;;;5.30;4.20;;;;;;;5.31;46.27;96554.36;110618;1274;22814;-78
2024/01/09 11:11:47;;;;;;;7.00;3.80;;;;;;;5.32;46.47;96559.63;110616;1274;22852;-80
2024/01/09 11:14:17;;;;;;;5.50;3.70;;;;;;;5.23;46.33;96556.67;110594;1274;22332;-79
2024/01/09 11:16:49;;;;;;;5.40;4.00;;;;;;;5.24;46.44;96559.48;110611;1275;22798;-79
2024/01/09 11:19:17;;;;;;;7.20;4.70;;;;;;;5.36;46.64;96565.80;110591;1274;22207;-79
2024/01/09 11:21:46;;;;;;;5.80;4.00;;;;;;;5.51;45.79;96563.96;110572;1274;22450;-80